Portada
METAR-TAF:

METAR-TAF

Aeroports :

Pyongyang, Corea del Nord

latitud: 39-02N, longitud: 125-47E, altitud: 36 m

METAR: manca

Hora: 11:32 (02:32 UTC)

Pronòstic

L'informe es va fer fa 5 hores i 32 minuts, a les 21:00 UTC
Pronòstic vàlid del 03 a les 00 UTC al 03 a les 24 UTC
Vent 14 kt del Nord-Oest
Visibilitat 10 km o més
sense núvols per sota de 1500 mi sense presència de cumulonimbus.
Temporalment
l' 03 a les 00 UTC al 03 a les 06 UTC
Vent 10 kt del Sud-Oest
Cel ennuvolat a una alçada de 2000 ft

TAF: ZKPY 022100Z 0300/0324 32007MPS CAVOK TX02/0307Z TNM10/0321Z TEMPO 0300/0306 23005MPS BKN020

Observacions i pronòstics meteorològics de més de 4000 aeroports (METAR i TAF).

Les estacions disponibles són els punts grocs i vermells al mapa.

Posi el ratolí al punt desitjat per veure el nom de l'estació.

Feu clic per veure les observacions i els pronòstics meteorològics.

Per canviar el mapa: feu clic els botons verds amb una creu de color negre per apropar; al botó verd amb un guió per allunyar la imatge; o en les fletxes verdes per a mapes adjacents.


METAR-TAF: